Time;durP1;ratioP1;P1;durP2;ratioP2;P2;SDS_P1;SDS_P2;PMS_P1;PMS_P2;Temp;Humidity;BMP_temperature;BMP_pressure;BME280_temperature;BME280_humidity;BME280_pressure;Samples;Min_cycle;Max_cycle;Signal;HPM_P1;HPM_P2
2022/02/23 00:02:16;;;;;;;33.30;22.83;;;;;;;4.94;100.00;97987.36;1779200;80;21033;-71
2022/02/23 00:04:43;;;;;;;32.50;20.17;;;;;;;4.90;100.00;97995.41;1782243;80;21057;-70
2022/02/23 00:07:11;;;;;;;30.70;19.40;;;;;;;4.87;100.00;97999.83;1786245;80;21628;-71
2022/02/23 00:09:38;;;;;;;30.33;18.00;;;;;;;4.86;100.00;98008.86;1779627;80;21131;-71
2022/02/23 00:12:06;;;;;;;29.77;18.67;;;;;;;4.84;100.00;98016.25;1785469;80;21029;-70
2022/02/23 00:14:35;;;;;;;30.63;18.40;;;;;;;4.82;100.00;98014.27;1777050;79;21018;-69
2022/02/23 00:17:02;;;;;;;29.80;18.20;;;;;;;4.80;100.00;98012.29;1791492;80;21048;-70
2022/02/23 00:19:29;;;;;;;31.43;18.20;;;;;;;4.78;100.00;98018.34;1781668;80;21104;-70
2022/02/23 00:21:56;;;;;;;29.47;18.40;;;;;;;4.77;100.00;98023.88;1787744;80;21521;-71
2022/02/23 00:24:23;;;;;;;32.07;19.90;;;;;;;4.75;100.00;98018.70;1786377;80;21049;-70
2022/02/23 00:26:50;;;;;;;29.07;17.97;;;;;;;4.75;100.00;98024.05;1784390;79;21079;-71
2022/02/23 00:29:18;;;;;;;32.07;19.57;;;;;;;4.73;100.00;98019.39;1786443;80;21089;-70
2022/02/23 00:31:46;;;;;;;30.90;18.23;;;;;;;4.72;100.00;98029.25;1782256;80;21048;-69
2022/02/23 00:34:13;;;;;;;31.67;19.00;;;;;;;4.71;100.00;98026.75;1783395;80;21002;-71
2022/02/23 00:36:41;;;;;;;29.30;18.30;;;;;;;4.72;100.00;98027.09;1789902;80;21025;-71
2022/02/23 00:39:08;;;;;;;34.73;21.47;;;;;;;4.73;100.00;98026.91;1780918;80;21160;-71
2022/02/23 00:41:35;;;;;;;38.10;25.23;;;;;;;4.73;100.00;98025.57;1757433;80;21525;-70
2022/02/23 00:44:02;;;;;;;52.93;34.57;;;;;;;4.71;100.00;98026.75;1782030;80;21030;-71
2022/02/23 00:46:30;;;;;;;106.57;67.40;;;;;;;4.69;100.00;98029.64;1786432;80;21093;-71
2022/02/23 00:48:57;;;;;;;81.83;55.27;;;;;;;4.69;100.00;98040.83;1787150;80;21096;-71
2022/02/23 00:51:24;;;;;;;61.87;44.00;;;;;;;4.68;100.00;98043.20;1781474;80;21057;-71
2022/02/23 00:53:51;;;;;;;54.00;39.47;;;;;;;4.65;100.00;98045.72;1786575;80;21033;-70
2022/02/23 00:56:18;;;;;;;45.27;32.60;;;;;;;4.65;100.00;98044.38;1780370;80;21481;-70
2022/02/23 00:58:45;;;;;;;36.77;23.70;;;;;;;4.65;100.00;98045.72;1759503;81;21054;-73
2022/02/23 01:01:15;;;;;;;32.27;20.03;;;;;;;4.64;100.00;98052.59;1756050;81;21519;-71
2022/02/23 01:03:42;;;;;;;30.77;19.73;;;;;;;4.62;100.00;98056.81;1751575;81;20991;-71
2022/02/23 01:06:10;;;;;;;34.43;20.43;;;;;;;4.59;100.00;98057.69;1734460;80;21070;-71
2022/02/23 01:08:38;;;;;;;30.53;19.13;;;;;;;4.56;100.00;98057.01;1750412;81;21101;-69
2022/02/23 01:11:07;;;;;;;31.20;18.40;;;;;;;4.56;100.00;98050.31;1691162;82;21669;-71
2022/02/23 01:13:34;;;;;;;30.37;18.13;;;;;;;4.55;100.00;98058.04;1699642;83;21587;-71
2022/02/23 01:16:04;;;;;;;29.40;18.27;;;;;;;4.56;100.00;98066.89;1688648;83;21063;-70
2022/02/23 01:18:31;;;;;;;28.93;18.30;;;;;;;4.53;100.00;98066.77;1687439;83;21011;-71
2022/02/23 01:20:58;;;;;;;32.23;19.57;;;;;;;4.52;100.00;98073.63;1699231;82;21059;-71
2022/02/23 01:23:25;;;;;;;29.63;18.13;;;;;;;4.49;100.00;98074.80;1727924;83;21051;-70
2022/02/23 01:25:58;;;;;;;32.37;18.90;;;;;;;4.45;100.00;98079.38;1691696;83;21132;-71
2022/02/23 01:28:32;;;;;;;30.20;17.27;;;;;;;4.41;100.00;98088.27;1716492;83;21550;-70
2022/02/23 01:30:59;;;;;;;31.30;19.33;;;;;;;4.37;100.00;98091.81;1666097;84;21028;-71
2022/02/23 01:33:26;;;;;;;38.23;24.93;;;;;;;4.34;100.00;98092.67;1693128;83;21070;-71
2022/02/23 01:35:53;;;;;;;37.97;28.10;;;;;;;4.30;100.00;98103.39;1659977;84;21071;-72
2022/02/23 01:38:20;;;;;;;33.60;23.33;;;;;;;4.22;100.00;98106.97;1679312;84;21063;-72
2022/02/23 01:40:48;;;;;;;31.30;19.27;;;;;;;4.19;100.00;98109.47;1697444;82;21520;-70
2022/02/23 01:43:15;;;;;;;45.17;34.63;;;;;;;4.16;100.00;98117.02;1677471;84;21089;-71
2022/02/23 01:45:42;;;;;;;38.47;28.70;;;;;;;4.10;100.00;98127.11;1725521;83;21082;-70
2022/02/23 01:48:09;;;;;;;33.50;21.87;;;;;;;4.07;100.00;98125.63;1665605;83;21118;-70
2022/02/23 01:50:36;;;;;;;50.50;35.47;;;;;;;4.02;100.00;98140.03;1712030;83;21058;-71
2022/02/23 01:53:05;;;;;;;131.83;95.23;;;;;;;3.99;100.00;98137.19;1706945;83;21087;-71
2022/02/23 01:55:33;;;;;;;119.43;82.60;;;;;;;3.96;100.00;98148.23;1699919;83;21161;-70
2022/02/23 01:58:00;;;;;;;59.60;41.83;;;;;;;3.92;100.00;98152.27;1701409;84;21087;-70
2022/02/23 02:00:28;;;;;;;36.93;24.43;;;;;;;3.90;100.00;98153.47;1675528;85;21074;-71
2022/02/23 02:02:57;;;;;;;37.10;26.53;;;;;;;3.87;100.00;98167.17;1675909;84;21048;-71
2022/02/23 02:05:24;;;;;;;37.77;26.50;;;;;;;3.83;100.00;98165.36;1691575;83;21086;-69
2022/02/23 02:07:51;;;;;;;33.37;21.57;;;;;;;3.79;100.00;98172.89;1671323;84;21034;-70
2022/02/23 02:10:25;;;;;;;30.57;19.50;;;;;;;3.75;100.00;98178.27;1692716;84;21079;-70
2022/02/23 02:12:52;;;;;;;33.23;22.20;;;;;;;3.70;100.00;98193.98;1693853;84;21034;-71
2022/02/23 02:15:20;;;;;;;53.63;42.53;;;;;;;3.66;100.00;98202.51;1695341;84;21063;-71
2022/02/23 02:17:47;;;;;;;39.10;29.90;;;;;;;3.60;100.00;98216.06;1751087;81;21007;-70
2022/02/23 02:20:14;;;;;;;62.47;49.10;;;;;;;3.55;100.00;98227.77;1756771;81;21042;-71
2022/02/23 02:22:42;;;;;;;134.13;98.93;;;;;;;3.51;100.00;98237.13;1748640;81;21015;-71
2022/02/23 02:25:09;;;;;;;41.30;31.63;;;;;;;3.44;100.00;98253.00;1749821;81;21510;-70
2022/02/23 02:27:36;;;;;;;32.23;20.83;;;;;;;3.36;100.00;98259.17;1753071;81;21065;-70
2022/02/23 02:30:05;;;;;;;36.57;26.33;;;;;;;3.30;100.00;98270.55;1745876;81;21018;-71
2022/02/23 02:32:32;;;;;;;73.07;54.27;;;;;;;3.26;100.00;98273.70;1747237;80;21037;-72
2022/02/23 02:34:59;;;;;;;36.20;26.87;;;;;;;3.20;100.00;98280.05;1750488;81;21475;-71
2022/02/23 02:37:28;;;;;;;38.27;27.17;;;;;;;3.14;100.00;98293.27;1753145;81;21038;-72
2022/02/23 02:39:55;;;;;;;35.13;22.33;;;;;;;3.07;100.00;98297.09;1731897;82;21534;-71
2022/02/23 02:42:22;;;;;;;52.17;41.50;;;;;;;3.02;100.00;98316.77;1749607;81;21023;-69
2022/02/23 02:44:49;;;;;;;102.43;74.53;;;;;;;2.95;100.00;98317.10;1748567;81;21081;-70
2022/02/23 02:47:16;;;;;;;56.97;41.13;;;;;;;2.89;100.00;98324.45;1730638;81;21045;-70
2022/02/23 02:49:43;;;;;;;38.43;26.43;;;;;;;2.81;100.00;98326.58;1752109;81;21077;-71
2022/02/23 02:52:10;;;;;;;34.97;25.17;;;;;;;2.73;100.00;98335.92;1752556;81;21014;-70
2022/02/23 02:54:38;;;;;;;135.43;84.93;;;;;;;2.68;100.00;98339.06;1751415;80;21019;-70
2022/02/23 02:57:07;;;;;;;93.53;64.30;;;;;;;2.63;100.00;98354.72;1731793;81;21058;-71
2022/02/23 02:59:34;;;;;;;38.23;26.60;;;;;;;2.56;100.00;98358.53;1759626;81;21007;-71
2022/02/23 03:02:01;;;;;;;66.00;48.73;;;;;;;2.50;100.00;98355.66;1736381;81;21061;-71
2022/02/23 03:04:28;;;;;;;102.10;77.33;;;;;;;2.45;100.00;98364.99;1755298;81;21092;-71
2022/02/23 03:06:56;;;;;;;51.30;35.70;;;;;;;2.40;100.00;98369.97;1756053;81;21540;-70
2022/02/23 03:09:25;;;;;;;30.90;19.57;;;;;;;2.36;100.00;98386.47;1740137;81;21069;-70
2022/02/23 03:11:54;;;;;;;27.87;17.80;;;;;;;2.32;100.00;98385.09;1756724;81;20976;-72
2022/02/23 03:14:21;;;;;;;28.53;18.13;;;;;;;2.28;100.00;98400.11;1756587;81;21147;-70
2022/02/23 03:16:49;;;;;;;64.80;51.70;;;;;;;2.24;100.00;98396.56;1761634;81;21031;-70
2022/02/23 03:19:16;;;;;;;40.67;28.10;;;;;;;2.20;100.00;98404.55;1765010;81;21080;-72
2022/02/23 03:21:43;;;;;;;145.37;100.83;;;;;;;2.16;100.00;98405.37;1760395;81;21057;-71
2022/02/23 03:24:10;;;;;;;51.37;38.20;;;;;;;2.15;100.00;98412.19;1750778;81;21483;-70
2022/02/23 03:26:38;;;;;;;31.63;19.80;;;;;;;2.13;100.00;98411.01;1755590;80;20988;-72
2022/02/23 03:29:05;;;;;;;32.13;20.73;;;;;;;2.11;100.00;98417.00;1751347;81;21584;-72
2022/02/23 03:31:32;;;;;;;41.67;29.43;;;;;;;2.09;100.00;98417.66;1758232;81;21022;-72
2022/02/23 03:33:59;;;;;;;75.53;53.87;;;;;;;2.06;100.00;98424.63;1765902;81;21037;-70
2022/02/23 03:36:26;;;;;;;28.57;19.43;;;;;;;2.05;100.00;98429.13;1726938;82;21041;-70
2022/02/23 03:38:53;;;;;;;23.70;14.03;;;;;;;2.05;100.00;98433.61;1754531;81;21025;-71
2022/02/23 03:41:20;;;;;;;25.43;16.67;;;;;;;2.04;100.00;98441.28;1753853;81;21559;-71
2022/02/23 03:43:47;;;;;;;30.17;23.50;;;;;;;2.03;100.00;98443.59;1732839;81;21561;-71
2022/02/23 03:46:14;;;;;;;50.33;38.67;;;;;;;2.02;100.00;98445.91;1754313;81;21061;-71
2022/02/23 03:48:41;;;;;;;42.60;35.90;;;;;;;2.01;100.00;98452.25;1753094;81;21039;-71
2022/02/23 03:51:10;;;;;;;28.67;21.13;;;;;;;2.01;100.00;98456.25;1758453;81;21045;-70
2022/02/23 03:53:37;;;;;;;25.50;17.50;;;;;;;1.99;100.00;98467.56;1727859;81;21098;-71
2022/02/23 03:56:05;;;;;;;27.03;15.97;;;;;;;1.94;100.00;98465.86;1758277;80;21514;-72
2022/02/23 03:58:33;;;;;;;24.67;16.13;;;;;;;1.90;100.00;98469.33;1754560;81;21198;-71
2022/02/23 04:01:00;;;;;;;24.93;15.67;;;;;;;1.87;100.00;98474.96;1760335;81;21066;-70
2022/02/23 04:03:27;;;;;;;31.30;22.03;;;;;;;1.82;100.00;98474.08;1760759;81;21504;-70
2022/02/23 04:05:54;;;;;;;34.37;24.90;;;;;;;1.78;100.00;98482.05;1738082;81;20991;-70
2022/02/23 04:08:22;;;;;;;89.77;65.43;;;;;;;1.73;100.00;98490.99;1752286;81;21084;-69
2022/02/23 04:10:49;;;;;;;93.37;63.57;;;;;;;1.68;100.00;98496.80;1753482;81;21523;-72
2022/02/23 04:13:16;;;;;;;111.33;75.60;;;;;;;1.66;100.00;98503.25;1755507;81;21058;-71
2022/02/23 04:15:43;;;;;;;40.73;28.50;;;;;;;1.62;100.00;98513.88;1725558;81;21042;-70
2022/02/23 04:18:10;;;;;;;30.63;23.00;;;;;;;1.57;100.00;98521.48;1731874;81;21089;-71
2022/02/23 04:20:37;;;;;;;37.37;27.33;;;;;;;1.53;100.00;98528.11;1731237;81;21037;-70
2022/02/23 04:23:04;;;;;;;43.97;32.27;;;;;;;1.48;100.00;98532.55;1756225;81;21031;-71
2022/02/23 04:25:32;;;;;;;43.93;30.87;;;;;;;1.44;100.00;98544.50;1762424;80;21037;-71
2022/02/23 04:28:00;;;;;;;36.30;27.00;;;;;;;1.40;100.00;98555.95;1754696;81;21093;-71
2022/02/23 04:30:27;;;;;;;51.50;42.33;;;;;;;1.36;100.00;98557.71;1758519;81;21033;-71
2022/02/23 04:32:54;;;;;;;89.70;68.43;;;;;;;1.32;100.00;98564.66;1748538;81;21506;-69
2022/02/23 04:35:22;;;;;;;34.93;25.30;;;;;;;1.31;100.00;98573.66;1751939;81;21018;-71
2022/02/23 04:37:49;;;;;;;24.07;15.80;;;;;;;1.27;100.00;98576.24;1754960;81;21042;-71
2022/02/23 04:40:17;;;;;;;23.93;14.77;;;;;;;1.25;100.00;98590.20;1736933;81;21473;-71
2022/02/23 04:42:45;;;;;;;34.43;23.83;;;;;;;1.22;100.00;98586.53;1761810;81;22299;-71
2022/02/23 04:45:12;;;;;;;51.27;36.17;;;;;;;1.20;100.00;98592.97;1752190;81;21130;-71
2022/02/23 04:47:40;;;;;;;85.33;63.73;;;;;;;1.16;100.00;98595.09;1763341;81;21045;-71
2022/02/23 04:50:08;;;;;;;117.20;79.63;;;;;;;1.12;100.00;98600.37;1755090;81;21042;-70
2022/02/23 04:52:37;;;;;;;51.13;37.07;;;;;;;1.09;100.00;98608.64;1740501;81;21122;-68
2022/02/23 04:55:05;;;;;;;28.70;19.10;;;;;;;1.07;100.00;98611.44;1729991;81;21088;-70
2022/02/23 04:57:32;;;;;;;38.40;28.90;;;;;;;1.05;100.00;98610.75;1729078;81;21108;-71
2022/02/23 04:59:59;;;;;;;27.90;16.80;;;;;;;1.04;100.00;98619.70;1753197;81;21035;-71
2022/02/23 05:02:26;;;;;;;30.23;18.57;;;;;;;1.04;100.00;98624.20;1757485;81;20992;-71
2022/02/23 05:04:55;;;;;;;32.33;23.17;;;;;;;1.01;100.00;98626.68;1738282;81;21136;-72
2022/02/23 05:07:24;;;;;;;32.33;24.77;;;;;;;1.01;100.00;98638.66;1723539;81;21046;-71
2022/02/23 05:09:54;;;;;;;39.03;31.63;;;;;;;1.03;100.00;98648.66;1756452;81;21036;-70
2022/02/23 05:12:21;;;;;;;48.30;36.80;;;;;;;1.03;100.00;98651.33;1754895;81;21058;-71
2022/02/23 05:14:48;;;;;;;37.57;24.30;;;;;;;1.03;100.00;98657.15;1756115;80;20990;-71
2022/02/23 05:17:16;;;;;;;29.23;16.70;;;;;;;1.04;100.00;98660.14;1738347;81;21089;-73
2022/02/23 05:19:44;;;;;;;37.47;22.80;;;;;;;1.07;100.00;98665.19;1731969;81;21098;-71
2022/02/23 05:22:11;;;;;;;32.80;20.37;;;;;;;1.11;100.00;98663.91;1739268;81;21057;-73
2022/02/23 05:24:39;;;;;;;29.77;15.93;;;;;;;1.17;100.00;98665.14;1757649;81;21030;-71
2022/02/23 05:27:06;;;;;;;25.23;13.03;;;;;;;1.25;100.00;98667.43;1758405;81;21082;-72
2022/02/23 05:29:33;;;;;;;24.90;14.40;;;;;;;1.35;100.00;98669.21;1760240;81;21039;-71
2022/02/23 05:32:00;;;;;;;37.93;28.20;;;;;;;1.46;100.00;98669.88;1733480;81;21029;-72
2022/02/23 05:34:28;;;;;;;22.77;13.43;;;;;;;1.52;100.00;98676.44;1752838;81;21806;-73
2022/02/23 05:36:56;;;;;;;25.53;16.13;;;;;;;1.55;100.00;98688.14;1734231;81;21070;-71
2022/02/23 05:39:23;;;;;;;24.67;14.97;;;;;;;1.54;100.00;98686.48;1753658;81;21014;-71
2022/02/23 05:41:50;;;;;;;50.93;35.77;;;;;;;1.53;100.00;98696.78;1734341;81;21507;-72
2022/02/23 05:44:17;;;;;;;24.70;13.80;;;;;;;1.54;100.00;98706.47;1730768;81;21613;-72
2022/02/23 05:46:44;;;;;;;18.27;10.03;;;;;;;1.56;100.00;98712.95;1756802;81;21015;-70
2022/02/23 05:49:11;;;;;;;21.10;11.70;;;;;;;1.59;100.00;98709.50;1759545;81;21481;-72
2022/02/23 05:51:39;;;;;;;23.03;12.17;;;;;;;1.62;100.00;98719.87;1762380;81;21625;-73
2022/02/23 05:54:06;;;;;;;23.40;13.37;;;;;;;1.66;100.00;98723.91;1755022;81;21000;-69
2022/02/23 05:56:34;;;;;;;24.97;14.10;;;;;;;1.73;100.00;98726.02;1750017;79;21132;-70
2022/02/23 05:59:01;;;;;;;47.13;32.10;;;;;;;1.79;100.00;98726.73;1696114;81;21029;-70
2022/02/23 06:01:28;;;;;;;22.53;12.50;;;;;;;1.85;100.00;98728.33;1733160;81;21179;-68
2022/02/23 06:03:55;;;;;;;22.03;12.10;;;;;;;1.91;100.00;98728.23;1748718;81;21027;-68
2022/02/23 06:06:24;;;;;;;24.20;13.53;;;;;;;1.99;100.00;98730.17;1710457;82;21031;-68
2022/02/23 06:08:51;;;;;;;46.90;30.73;;;;;;;2.07;100.00;98729.78;1718442;82;21046;-69
2022/02/23 06:11:18;;;;;;;27.57;15.20;;;;;;;2.15;100.00;98734.36;1738827;82;21603;-69
2022/02/23 06:13:50;;;;;;;27.57;15.90;;;;;;;2.22;100.00;98739.94;1718010;82;21040;-70
2022/02/23 06:16:14;;;;;;;25.33;13.30;;;;;;;2.30;100.00;98741.34;1709102;83;21091;-71
2022/02/23 06:18:41;;;;;;;24.97;13.37;;;;;;;2.38;100.00;98748.61;1693952;83;21135;-70
2022/02/23 06:21:08;;;;;;;27.97;14.40;;;;;;;2.47;100.00;98739.70;1784879;80;21002;-71
2022/02/23 06:23:35;;;;;;;22.77;11.20;;;;;;;2.57;100.00;98741.81;1786201;79;21061;-69
2022/02/23 06:26:04;;;;;;;27.23;15.40;;;;;;;2.63;100.00;98745.19;1788386;80;21025;-69
2022/02/23 06:28:33;;;;;;;29.00;19.23;;;;;;;2.71;100.00;98747.12;1755875;80;20978;-70
2022/02/23 06:31:00;;;;;;;20.30;11.20;;;;;;;2.79;100.00;98749.02;1790106;80;21522;-70
2022/02/23 06:33:28;;;;;;;23.97;12.43;;;;;;;2.91;100.00;98749.13;1753737;80;21038;-72
2022/02/23 06:35:55;;;;;;;20.57;10.90;;;;;;;3.04;100.00;98744.72;1785916;80;21041;-69
2022/02/23 06:38:22;;;;;;;20.07;10.07;;;;;;;3.17;100.00;98738.97;1755355;80;21566;-70
2022/02/23 06:40:50;;;;;;;23.10;13.50;;;;;;;3.27;100.00;98742.39;1757003;80;21018;-70
2022/02/23 06:43:18;;;;;;;55.33;38.63;;;;;;;3.33;100.00;98744.92;1782619;80;21041;-71
2022/02/23 06:45:49;;;;;;;20.90;11.23;;;;;;;3.41;100.00;98739.64;1753612;80;21077;-70
2022/02/23 06:48:21;;;;;;;35.80;21.80;;;;;;;3.52;100.00;98738.55;1785979;80;21071;-68
2022/02/23 06:50:49;;;;;;;23.98;13.15;;;;;;;3.64;100.00;98731.10;1789760;80;21079;-69
2022/02/23 06:53:17;;;;;;;22.67;11.70;;;;;;;3.78;100.00;98723.31;1785847;80;21045;-72
2022/02/23 06:55:45;;;;;;;24.20;11.90;;;;;;;3.93;100.00;98720.89;1776167;80;21513;-69
2022/02/23 06:58:12;;;;;;;22.30;12.30;;;;;;;4.06;100.00;98719.61;1766829;80;21017;-70
2022/02/23 07:00:39;;;;;;;21.30;10.43;;;;;;;4.13;100.00;98708.08;1695918;83;21071;-72
2022/02/23 07:03:07;;;;;;;21.83;11.63;;;;;;;4.21;100.00;98702.41;1757914;80;21695;-73
2022/02/23 07:05:34;;;;;;;22.17;11.80;;;;;;;4.26;100.00;98706.27;1745110;80;21035;-71
2022/02/23 07:08:03;;;;;;;18.90;10.70;;;;;;;4.34;100.00;98714.84;1758003;80;21058;-71
2022/02/23 07:10:31;;;;;;;24.50;13.43;;;;;;;4.46;100.00;98720.70;1756444;80;21010;-69
2022/02/23 07:13:00;;;;;;;25.67;13.90;;;;;;;4.56;100.00;98754.34;1757622;80;21045;-71
2022/02/23 07:15:28;;;;;;;27.03;14.20;;;;;;;4.65;100.00;98790.02;1775871;80;21022;-70
2022/02/23 07:17:55;;;;;;;31.83;15.27;;;;;;;4.74;100.00;98822.50;1785469;80;20967;-70
2022/02/23 07:20:23;;;;;;;27.40;13.87;;;;;;;4.81;100.00;98858.02;1733699;80;20991;-66
2022/02/23 07:22:51;;;;;;;17.77;10.50;;;;;;;4.89;100.00;98885.66;1759667;80;21577;-70
2022/02/23 07:25:18;;;;;;;18.37;10.43;;;;;;;5.03;100.00;98900.75;1755718;80;21550;-70
2022/02/23 07:27:46;;;;;;;21.60;10.97;;;;;;;5.13;100.00;98930.94;1783565;80;21036;-70
2022/02/23 07:30:16;;;;;;;20.73;10.33;;;;;;;5.24;100.00;98971.33;1755777;80;22251;-69
2022/02/23 07:32:43;;;;;;;22.43;11.00;;;;;;;5.33;100.00;99011.41;1748409;80;21542;-69
2022/02/23 07:35:13;;;;;;;23.10;10.77;;;;;;;5.43;100.00;99056.84;1750808;80;21062;-75
2022/02/23 07:37:44;;;;;;;25.30;13.80;;;;;;;5.54;100.00;99100.45;1752041;80;21031;-69
2022/02/23 07:40:16;;;;;;;26.67;13.10;;;;;;;5.62;100.00;99152.28;1727648;80;21664;-70
2022/02/23 07:42:43;;;;;;;28.05;13.32;;;;;;;5.69;100.00;99191.38;1679184;83;21552;-71
2022/02/23 07:45:12;;;;;;;20.67;11.00;;;;;;;5.71;100.00;99243.02;1696437;83;21530;-69
2022/02/23 07:47:40;;;;;;;19.67;10.87;;;;;;;5.69;100.00;99306.20;1702299;83;21051;-71
2022/02/23 07:50:12;;;;;;;21.50;11.60;;;;;;;5.80;100.00;99325.22;1702176;83;21018;-69
2022/02/23 07:52:40;;;;;;;26.55;13.48;;;;;;;5.98;100.00;99359.24;1701389;83;21066;-70
2022/02/23 07:55:07;;;;;;;28.57;12.97;;;;;;;6.21;100.00;99381.02;1695747;83;21521;-70
2022/02/23 07:57:35;;;;;;;19.63;9.50;;;;;;;6.39;100.00;99398.40;1719157;82;21049;-69
2022/02/23 08:00:05;;;;;;;25.13;12.03;;;;;;;6.61;100.00;99413.97;1690632;83;21194;-71
2022/02/23 08:02:34;;;;;;;24.47;11.03;;;;;;;6.79;100.00;99432.67;1713243;83;21083;-68
2022/02/23 08:05:01;;;;;;;27.50;12.50;;;;;;;6.98;100.00;99458.46;1679616;83;21100;-70
2022/02/23 08:07:29;;;;;;;26.37;13.70;;;;;;;7.13;100.00;99486.06;1710251;82;21080;-71
2022/02/23 08:09:56;;;;;;;30.27;16.07;;;;;;;7.27;100.00;99516.36;1692499;83;20986;-69
2022/02/23 08:12:23;;;;;;;34.07;20.47;;;;;;;7.49;100.00;99536.94;1702372;82;21273;-71
2022/02/23 08:14:52;;;;;;;32.53;19.07;;;;;;;7.74;100.00;99543.25;1701014;83;21598;-69
2022/02/23 08:20:07;;;;;;;31.23;16.77;;;;;;;8.10;100.00;99619.70;1670147;83;21074;-70
2022/02/23 08:22:35;;;;;;;23.17;11.23;;;;;;;8.04;100.00;99660.73;1707520;83;21011;-70
2022/02/23 08:25:03;;;;;;;31.60;17.67;;;;;;;8.04;100.00;99688.53;1703325;82;21070;-70
2022/02/23 08:27:33;;;;;;;22.37;12.83;;;;;;;8.05;100.00;99714.44;1684564;83;21577;-69
2022/02/23 08:30:01;;;;;;;26.70;13.80;;;;;;;8.15;100.00;99723.23;1695579;83;21082;-71
2022/02/23 08:32:28;;;;;;;24.17;12.33;;;;;;;8.31;100.00;99737.25;1702885;82;21544;-70
2022/02/23 08:34:56;;;;;;;23.77;11.70;;;;;;;8.49;100.00;99743.06;1681495;83;21456;-70
2022/02/23 08:37:23;;;;;;;30.50;16.70;;;;;;;8.71;100.00;99752.35;1701209;82;21044;-72
2022/02/23 08:39:53;;;;;;;21.83;11.97;;;;;;;8.89;100.00;99758.46;1651976;83;21030;-70
2022/02/23 08:42:20;;;;;;;21.53;11.83;;;;;;;9.04;100.00;99769.92;1758649;80;21038;-69
2022/02/23 08:44:48;;;;;;;30.67;18.43;;;;;;;9.03;100.00;99787.11;1733843;81;21518;-71
2022/02/23 08:47:15;;;;;;;28.03;16.17;;;;;;;9.11;100.00;99781.73;1756759;81;21056;-70
2022/02/23 08:49:42;;;;;;;25.93;16.50;;;;;;;9.25;100.00;99785.10;1769699;80;21506;-70
2022/02/23 08:52:10;;;;;;;22.33;11.27;;;;;;;9.31;100.00;99786.27;1785760;80;21034;-68
2022/02/23 08:54:37;;;;;;;15.80;8.20;;;;;;;9.37;100.00;99791.53;1750554;80;21033;-70
2022/02/23 08:57:04;;;;;;;30.23;14.57;;;;;;;9.46;100.00;99799.95;1746458;80;21026;-71
2022/02/23 08:59:31;;;;;;;20.43;9.50;;;;;;;9.52;100.00;99801.12;1776800;80;20970;-71
2022/02/23 09:01:59;;;;;;;19.77;9.50;;;;;;;9.63;100.00;99800.27;1777409;80;21031;-70
2022/02/23 09:04:26;;;;;;;20.70;10.00;;;;;;;9.82;100.00;99802.25;1748887;80;21022;-69
2022/02/23 09:06:53;;;;;;;26.00;12.90;;;;;;;10.01;100.00;99797.81;1773467;80;21033;-70
2022/02/23 09:09:20;;;;;;;23.22;14.03;;;;;;;10.14;100.00;99793.72;1756237;80;21233;-70
2022/02/23 09:11:48;;;;;;;20.12;11.50;;;;;;;10.26;100.00;99785.05;1750578;80;21193;-72
2022/02/23 09:14:15;;;;;;;24.02;13.75;;;;;;;10.41;100.00;99792.45;1761535;80;21081;-69
2022/02/23 09:16:45;;;;;;;22.65;13.25;;;;;;;10.59;100.00;99790.87;1737069;80;21053;-70
2022/02/23 09:19:12;;;;;;;41.75;25.52;;;;;;;10.69;100.00;99813.09;1766659;80;21022;-70
2022/02/23 09:21:39;;;;;;;17.80;9.75;;;;;;;10.75;100.00;99818.33;1776303;80;21061;-70
2022/02/23 09:24:07;;;;;;;23.00;14.00;;;;;;;10.69;100.00;99828.48;1762927;80;21128;-70
2022/02/23 09:26:36;;;;;;;17.77;9.58;;;;;;;10.55;100.00;99832.77;1769239;80;21085;-70
2022/02/23 09:29:03;;;;;;;20.57;11.25;;;;;;;10.50;100.00;99831.97;1734945;82;21554;-70
2022/02/23 09:31:31;;;;;;;18.75;9.28;;;;;;;10.58;100.00;99831.08;1736562;82;21029;-72
2022/02/23 09:33:58;;;;;;;20.17;8.68;;;;;;;10.58;100.00;99838.67;1755666;80;21510;-70
2022/02/23 09:36:25;;;;;;;24.43;13.78;;;;;;;10.58;100.00;99834.61;1760250;80;21097;-71
2022/02/23 09:38:53;;;;;;;20.45;10.98;;;;;;;10.69;100.00;99836.60;1756364;80;21025;-72
2022/02/23 09:41:21;;;;;;;20.30;10.53;;;;;;;10.83;100.00;99832.62;1778324;80;20978;-70
2022/02/23 09:43:52;;;;;;;17.98;8.05;;;;;;;11.06;100.00;99835.03;1786629;80;21746;-70
2022/02/23 09:46:21;;;;;;;16.23;7.33;;;;;;;11.17;100.00;99846.79;1753782;80;21088;-71
2022/02/23 09:48:50;;;;;;;20.40;9.98;;;;;;;11.09;100.00;99841.45;1755510;80;20998;-66
2022/02/23 09:51:17;;;;;;;18.70;10.20;;;;;;;11.07;100.00;99848.91;1723089;82;21054;-70
2022/02/23 09:53:48;;;;;;;19.98;9.00;;;;;;;11.17;100.00;99844.95;1719882;82;21037;-66
2022/02/23 09:56:17;;;;;;;20.23;6.80;;;;;;;11.45;100.00;99853.02;1732551;82;21020;-67
2022/02/23 09:58:46;;;;;;;18.75;9.38;;;;;;;11.64;100.00;99856.59;1733109;82;21131;-70
2022/02/23 10:01:14;;;;;;;18.90;9.13;;;;;;;11.71;100.00;99864.83;1666555;83;21143;-68
2022/02/23 10:03:44;;;;;;;14.30;6.25;;;;;;;11.63;100.00;99877.08;1698375;82;21047;-70
2022/02/23 10:06:33;;;;;;;12.82;7.00;;;;;;;11.45;100.00;99880.93;1692428;82;21108;-70
2022/02/23 10:09:05;;;;;;;13.90;7.00;;;;;;;11.40;100.00;99876.08;1736177;82;21008;-70
2022/02/23 10:11:32;;;;;;;9.05;5.00;;;;;;;11.32;100.00;99878.83;1724568;82;21093;-70
2022/02/23 10:14:02;;;;;;;14.70;7.58;;;;;;;11.18;100.00;99880.96;1710926;82;21026;-69
2022/02/23 10:16:39;;;;;;;8.40;5.40;;;;;;;10.92;100.00;99896.16;1718477;82;21100;-68
2022/02/23 10:19:13;;;;;;;9.35;4.87;;;;;;;10.50;100.00;99902.25;1718902;82;21030;-67
2022/02/23 10:22:00;;;;;;;12.03;5.87;;;;;;;10.15;100.00;99903.50;1715369;82;21038;-69
2022/02/23 10:24:36;;;;;;;9.20;4.90;;;;;;;9.97;100.00;99891.02;1704422;82;21058;-69
2022/02/23 10:27:12;;;;;;;16.23;9.68;;;;;;;10.00;100.00;99895.22;1730000;82;21508;-69
2022/02/23 10:29:50;;;;;;;19.07;13.72;;;;;;;10.05;100.00;99894.20;1725222;82;21200;-70
2022/02/23 10:32:17;;;;;;;22.93;14.55;;;;;;;10.08;100.00;99899.27;1714960;83;21056;-71
2022/02/23 10:34:47;;;;;;;16.73;9.48;;;;;;;10.05;100.00;99895.05;1706075;82;21506;-71
2022/02/23 10:37:20;;;;;;;12.82;7.12;;;;;;;10.06;100.00;99891.34;1663711;85;21023;-71
2022/02/23 10:40:00;;;;;;;108.03;73.15;;;;;;;10.12;100.00;99890.32;1661591;86;21138;-68
2022/02/23 10:42:33;;;;;;;33.55;20.05;;;;;;;10.26;100.00;99896.36;1670565;85;21103;-68
2022/02/23 10:45:01;;;;;;;32.00;21.42;;;;;;;10.38;100.00;99893.66;1592170;88;21055;-69
2022/02/23 10:47:42;;;;;;;23.20;12.53;;;;;;;10.48;100.00;99892.61;1614000;87;21191;-68
2022/02/23 10:50:10;;;;;;;14.43;8.23;;;;;;;10.58;100.00;99896.80;1626871;87;21073;-69
2022/02/23 10:52:40;;;;;;;11.55;6.72;;;;;;;10.77;100.00;99889.30;1628327;87;21057;-67
2022/02/23 10:55:24;;;;;;;16.82;9.00;;;;;;;10.98;100.00;99887.34;1629399;87;21006;-68
2022/02/23 10:57:56;;;;;;;22.42;14.40;;;;;;;11.24;100.00;99890.22;1627585;87;21054;-69
2022/02/23 11:00:39;;;;;;;12.88;7.12;;;;;;;11.51;100.00;99889.70;1630817;87;21069;-69
2022/02/23 11:03:06;;;;;;;11.90;6.50;;;;;;;11.44;100.00;99903.63;1626025;87;21010;-68
2022/02/23 11:05:33;;;;;;;8.78;5.42;;;;;;;11.12;100.00;99911.42;1625425;88;21627;-70
2022/02/23 11:08:09;;;;;;;8.33;4.87;;;;;;;10.86;100.00;99905.82;1645652;86;21669;-69
2022/02/23 11:10:33;;;;;;;11.35;5.45;;;;;;;10.70;100.00;99906.73;1627883;87;21083;-69
2022/02/23 11:13:00;;;;;;;13.50;7.28;;;;;;;10.74;100.00;99887.78;1613069;87;21586;-69
2022/02/23 11:15:30;;;;;;;35.13;19.67;;;;;;;10.95;100.00;99891.23;1635921;87;21088;-68
2022/02/23 11:17:57;;;;;;;19.30;9.70;;;;;;;11.16;100.00;99877.59;1619245;87;21097;-70
2022/02/23 11:20:30;;;;;;;11.25;4.97;;;;;;;11.33;100.00;99895.42;1613700;88;21078;-68
2022/02/23 11:23:01;;;;;;;10.48;4.97;;;;;;;11.34;100.00;99905.20;1624383;87;21054;-69
2022/02/23 11:25:37;;;;;;;11.97;5.58;;;;;;;11.26;100.00;99903.06;1600698;89;21076;-70